Paul Mclernan — WDJ4817 — position and weather

sailwx.info

Track history (hours):
 
Tides and Currents Weather Stations Pressure Air Temp Water Temp Dewpoint Dewpoint Depression Visibility Wind Speed Wind Dir Waves Ship Positions

Paul Mclernan

Owner: KIRBY OFFSHORE MARINE, LLC, HOUSTON, TX. More information available from US FCC via Universal Licensing System and Coast Guard Vessel Documentation Center.

Last reported at 2018-Jul-20 06:28 UTC. Time now 2018-Jul-20 06:42 UTC.
Position N 32°50' W 079°56'.

Length 184 m; draft 6 m.

Type: . MMSI: 369262000.

Date/timePositionNaut miles runAvg speedWind from/ knotsBaromVisibWave heightAir tempDewpointWater temp
2018-Jul-20 06:28N 32°50' W 079°56'0 0.0
2018-Jul-19 22:12N 32°50' W 079°56'0 0.0
2018-Jul-19 22:00N 32°50' W 079°56'0 0.0
2018-Jul-19 21:30N 32°50' W 079°56'0 0.1
2018-Jul-19 21:00N 32°50' W 079°56'3 5.6
2018-Jul-19 20:30N 32°47' W 079°55'611.0
2018-Jul-19 20:00N 32°44' W 079°49'52 8.7
2018-Jul-19 14:01N 32°05' W 080°31'611.2
2018-Jul-19 13:30N 32°02' W 080°36'611.4
2018-Jul-19 13:01N 31°59' W 080°42'510.4
2018-Jul-19 12:30N 32°00' W 080°48'510.1
2018-Jul-19 12:01N 32°02' W 080°53'611.8
2018-Jul-19 11:31N 32°05' W 080°59'4 8.2
2018-Jul-19 11:00N 32°05' W 081°04'2 4.0
2018-Jul-19 10:26N 32°06' W 081°07'0 0.0
2018-Jul-19 09:56N 32°06' W 081°07'0 0.0
2018-Jul-19 09:26N 32°06' W 081°07'0 0.0
2018-Jul-17 15:43N 32°06' W 081°07'0 0.0
2018-Jul-17 15:28N 32°06' W 081°07'0 0.0
2018-Jul-17 15:00N 32°06' W 081°07'0 0.2
2018-Jul-17 14:30N 32°06' W 081°07'1 1.9
2018-Jul-17 14:00N 32°07' W 081°07'2 4.4
2018-Jul-17 13:30N 32°05' W 081°05'5 9.1
2018-Jul-17 13:00N 32°06' W 081°00'612.0
2018-Jul-17 12:30N 32°02' W 080°55'510.7
2018-Jul-17 12:00N 32°01' W 080°49'510.7
2018-Jul-17 11:31N 31°58' W 080°44'4 7.6
2018-Jul-17 11:00N 31°54' W 080°43'4 7.1
2018-Jul-17 10:30N 31°51' W 080°43'5 9.2
2018-Jul-17 10:00N 31°46' W 080°43'282 6.4
2018-Jul-15 14:09N 27°07' W 079°54'215.4
2018-Jul-15 14:00N 27°05' W 079°54'815.2
2018-Jul-15 13:30N 26°57' W 079°54'815.1
2018-Jul-15 13:00N 26°50' W 079°54'814.7
2018-Jul-15 12:26N 26°41' W 079°54'715.0
2018-Jul-15 11:58N 26°35' W 079°54'714.2
2018-Jul-15 11:30N 26°28' W 079°54'714.2
2018-Jul-15 11:00N 26°21' W 079°54'714.2
2018-Jul-15 10:30N 26°14' W 079°54'714.4
2018-Jul-15 10:00N 26°07' W 079°53'714.7
2018-Jul-15 09:31N 25°59' W 079°52'815.4
2018-Jul-15 09:01N 25°52' W 079°54'815.6
2018-Jul-15 08:30N 25°44' W 079°54'815.7
2018-Jul-15 08:01N 25°36' W 079°54'815.8
2018-Jul-15 07:30N 25°28' W 079°56'  
Track history (hours):
 
Tides and Currents Weather Stations Pressure Air Temp Water Temp Dewpoint Dewpoint Depression Visibility Wind Speed Wind Dir Waves Ship Positions

Paul Mclernan

Owner: KIRBY OFFSHORE MARINE, LLC, HOUSTON, TX. More information available from US FCC via Universal Licensing System and Coast Guard Vessel Documentation Center.

Last reported at 2018-Jul-20 06:28 UTC. Time now 2018-Jul-20 06:42 UTC.
Position N 32°50' W 079°56'.

Length 184 m; draft 6 m.

Type: . MMSI: 369262000.

Date/timePositionNaut miles runAvg speedWind from/ knotsBaromVisibWave heightAir tempDewpointWater temp
2018-Jul-20 06:28N 32°50' W 079°56'0 0.0
2018-Jul-19 22:12N 32°50' W 079°56'0 0.0
2018-Jul-19 22:00N 32°50' W 079°56'0 0.0
2018-Jul-19 21:30N 32°50' W 079°56'0 0.1
2018-Jul-19 21:00N 32°50' W 079°56'3 5.6
2018-Jul-19 20:30N 32°47' W 079°55'611.0
2018-Jul-19 20:00N 32°44' W 079°49'52 8.7
2018-Jul-19 14:01N 32°05' W 080°31'611.2
2018-Jul-19 13:30N 32°02' W 080°36'611.4
2018-Jul-19 13:01N 31°59' W 080°42'510.4
2018-Jul-19 12:30N 32°00' W 080°48'510.1
2018-Jul-19 12:01N 32°02' W 080°53'611.8
2018-Jul-19 11:31N 32°05' W 080°59'4 8.2
2018-Jul-19 11:00N 32°05' W 081°04'2 4.0
2018-Jul-19 10:26N 32°06' W 081°07'0 0.0
2018-Jul-19 09:56N 32°06' W 081°07'0 0.0
2018-Jul-19 09:26N 32°06' W 081°07'0 0.0
2018-Jul-17 15:43N 32°06' W 081°07'0 0.0
2018-Jul-17 15:28N 32°06' W 081°07'0 0.0
2018-Jul-17 15:00N 32°06' W 081°07'0 0.2
2018-Jul-17 14:30N 32°06' W 081°07'1 1.9
2018-Jul-17 14:00N 32°07' W 081°07'2 4.4
2018-Jul-17 13:30N 32°05' W 081°05'5 9.1
2018-Jul-17 13:00N 32°06' W 081°00'612.0
2018-Jul-17 12:30N 32°02' W 080°55'510.7
2018-Jul-17 12:00N 32°01' W 080°49'510.7
2018-Jul-17 11:31N 31°58' W 080°44'4 7.6
2018-Jul-17 11:00N 31°54' W 080°43'4 7.1
2018-Jul-17 10:30N 31°51' W 080°43'5 9.2
2018-Jul-17 10:00N 31°46' W 080°43'282 6.4
2018-Jul-15 14:09N 27°07' W 079°54'215.4
2018-Jul-15 14:00N 27°05' W 079°54'815.2
2018-Jul-15 13:30N 26°57' W 079°54'815.1
2018-Jul-15 13:00N 26°50' W 079°54'814.7
2018-Jul-15 12:26N 26°41' W 079°54'715.0
2018-Jul-15 11:58N 26°35' W 079°54'714.2
2018-Jul-15 11:30N 26°28' W 079°54'714.2
2018-Jul-15 11:00N 26°21' W 079°54'714.2
2018-Jul-15 10:30N 26°14' W 079°54'714.4
2018-Jul-15 10:00N 26°07' W 079°53'714.7
2018-Jul-15 09:31N 25°59' W 079°52'815.4
2018-Jul-15 09:01N 25°52' W 079°54'815.6
2018-Jul-15 08:30N 25°44' W 079°54'815.7
2018-Jul-15 08:01N 25°36' W 079°54'815.8
2018-Jul-15 07:30N 25°28' W 079°56'  

Dump ship's entire track history